createdAt,value
2022-08-17T00:01:27.150Z,101049.50
2022-08-17T00:03:54.125Z,101044.41
2022-08-17T00:06:27.963Z,101041.75
2022-08-17T00:08:57.225Z,101029.50
2022-08-17T00:11:30.739Z,101029.25
2022-08-17T00:14:18.734Z,101024.44
2022-08-17T00:16:56.579Z,101034.00
2022-08-17T00:19:25.548Z,101030.25
2022-08-17T00:21:59.939Z,101031.56
2022-08-17T00:24:41.603Z,101051.25
2022-08-17T00:27:07.930Z,101036.84
2022-08-17T00:29:34.276Z,101046.94
2022-08-17T00:32:01.779Z,101060.78
2022-08-17T00:34:48.110Z,101045.28
2022-08-17T00:37:14.474Z,101050.84
2022-08-17T00:39:40.894Z,101061.75
2022-08-17T00:42:19.306Z,101056.91
2022-08-17T00:44:45.863Z,101069.41
2022-08-17T00:47:12.234Z,101062.78
2022-08-17T00:49:38.636Z,101055.00
2022-08-17T00:52:12.508Z,101053.97
2022-08-17T00:54:42.403Z,101058.44
2022-08-17T00:57:15.251Z,101039.75
2022-08-17T00:59:46.478Z,101042.41
2022-08-17T01:02:30.071Z,101041.88
2022-08-17T01:05:01.330Z,101042.41
2022-08-17T01:07:27.913Z,101019.19
2022-08-17T01:09:54.719Z,101032.81
2022-08-17T01:12:21.133Z,101029.38
2022-08-17T01:14:47.522Z,101020.88
2022-08-17T01:17:13.893Z,101026.19
2022-08-17T01:19:42.324Z,101019.84
2022-08-17T01:22:11.623Z,101015.06
2022-08-17T01:24:49.743Z,101017.19
2022-08-17T01:27:18.462Z,101011.53
2022-08-17T01:29:51.556Z,101013.44
2022-08-17T01:32:18.164Z,101005.69
2022-08-17T01:34:50.534Z,101009.91
2022-08-17T01:37:19.955Z,101023.47
2022-08-17T01:39:53.752Z,101003.72
2022-08-17T01:42:22.953Z,101020.28
2022-08-17T01:44:54.847Z,101013.03
2022-08-17T01:47:21.285Z,101011.47
2022-08-17T01:49:48.018Z,101014.16
2022-08-17T01:52:15.313Z,101016.56
2022-08-17T01:54:45.482Z,101013.34
2022-08-17T01:57:11.881Z,101002.41
2022-08-17T01:59:38.345Z,101014.41
2022-08-17T02:02:06.001Z,101002.47
2022-08-17T02:04:32.554Z,101014.16
2022-08-17T02:06:58.982Z,101014.16
2022-08-17T02:09:29.949Z,101008.03
2022-08-17T02:11:59.787Z,101006.94
2022-08-17T02:14:46.136Z,100978.47
2022-08-17T02:17:12.544Z,100995.47
2022-08-17T02:19:40.042Z,100997.63
2022-08-17T02:22:06.476Z,100988.31
2022-08-17T02:24:59.778Z,100998.19
2022-08-17T02:27:22.096Z,100986.19
2022-08-17T02:29:48.461Z,100970.81
2022-08-17T02:32:20.921Z,100971.66
2022-08-17T02:34:54.403Z,100985.53
2022-08-17T02:37:20.839Z,100974.31
2022-08-17T02:39:47.348Z,100972.44
2022-08-17T02:42:14.769Z,100977.56
2022-08-17T02:44:41.601Z,100988.47
2022-08-17T02:47:09.487Z,100986.59
2022-08-17T02:49:36.554Z,100989.03
2022-08-17T02:52:05.484Z,100974.91
2022-08-17T02:54:41.170Z,100974.38
2022-08-17T02:57:09.454Z,100983.22
2022-08-17T02:59:35.812Z,100976.53
2022-08-17T03:02:11.395Z,100976.00
2022-08-17T03:04:38.503Z,100996.28
2022-08-17T03:07:05.064Z,100969.34
2022-08-17T03:09:31.836Z,100997.38
2022-08-17T03:12:10.049Z,100985.66
2022-08-17T03:14:41.509Z,100982.44
2022-08-17T03:17:08.712Z,101004.00
2022-08-17T03:19:35.086Z,100990.97
2022-08-17T03:22:36.229Z,100995.78
2022-08-17T03:24:55.002Z,100984.03
2022-08-17T03:27:22.597Z,100976.59
2022-08-17T03:29:48.929Z,100986.97
2022-08-17T03:32:16.641Z,100980.03
2022-08-17T03:34:43.260Z,100992.81
2022-08-17T03:37:09.605Z,100973.09
2022-08-17T03:39:36.008Z,100988.22
2022-08-17T03:42:32.527Z,100995.41
2022-08-17T03:45:00.272Z,100988.47
2022-08-17T03:47:27.513Z,100979.69
2022-08-17T03:49:53.871Z,100985.00
2022-08-17T03:52:20.197Z,100980.22
2022-08-17T03:54:46.592Z,100978.59
2022-08-17T03:57:13.441Z,101001.47
2022-08-17T03:59:40.885Z,100987.63
2022-08-17T04:02:11.210Z,100970.06
2022-08-17T04:04:38.585Z,100983.88
2022-08-17T04:07:05.114Z,100985.78
2022-08-17T04:09:31.677Z,100999.88
2022-08-17T04:12:02.379Z,100994.81
2022-08-17T04:14:31.998Z,100993.25
2022-08-17T04:16:58.322Z,100982.34
2022-08-17T04:19:24.670Z,100981.28
2022-08-17T04:21:51.056Z,100982.94
2022-08-17T04:24:17.398Z,100977.03
2022-08-17T04:26:54.241Z,100978.13
2022-08-17T04:29:21.109Z,100990.88
2022-08-17T04:31:47.446Z,100992.47
2022-08-17T04:34:13.798Z,100996.75
2022-08-17T04:36:40.141Z,101005.59
2022-08-17T04:39:16.505Z,101005.25
2022-08-17T04:41:43.294Z,101003.75
2022-08-17T04:44:09.790Z,101009.63
2022-08-17T04:46:36.510Z,101009.59
2022-08-17T04:49:06.582Z,101022.13
2022-08-17T04:51:40.084Z,101009.06
2022-08-17T04:54:20.346Z,101014.91
2022-08-17T04:56:46.845Z,100998.06
2022-08-17T04:59:15.993Z,101003.13
2022-08-17T05:01:43.927Z,101011.97
2022-08-17T05:04:20.840Z,101002.59
2022-08-17T05:06:59.137Z,101002.06
2022-08-17T05:09:26.742Z,100995.72
2022-08-17T05:11:53.088Z,101003.75
2022-08-17T05:14:21.760Z,101015.75
2022-08-17T05:16:59.582Z,101002.44
2022-08-17T05:19:27.322Z,101006.47
2022-08-17T05:21:53.659Z,101000.38
2022-08-17T05:24:38.460Z,100995.34
2022-08-17T05:27:06.833Z,100992.97
2022-08-17T05:29:35.399Z,101000.16
2022-08-17T05:32:39.173Z,101002.03
2022-08-17T05:34:59.104Z,101019.63
2022-08-17T05:37:25.489Z,101026.06
2022-08-17T05:39:53.753Z,101021.59
2022-08-17T05:42:20.253Z,101012.03
2022-08-17T05:44:46.612Z,101004.88
2022-08-17T05:47:12.970Z,101022.50
2022-08-17T05:49:39.567Z,101026.22
2022-08-17T05:52:22.733Z,101056.06
2022-08-17T05:55:18.961Z,101068.31
2022-08-17T05:58:15.839Z,101079.78
2022-08-17T06:00:56.095Z,101072.59
2022-08-17T06:03:34.779Z,101057.94
2022-08-17T06:06:17.054Z,101062.69
2022-08-17T06:08:46.244Z,101066.94
2022-08-17T06:11:31.305Z,101052.56
2022-08-17T06:14:19.083Z,101052.34
2022-08-17T06:16:50.629Z,101044.09
2022-08-17T06:19:38.759Z,101046.50
2022-08-17T06:22:07.726Z,101032.38
2022-08-17T06:24:53.676Z,101029.97
2022-08-17T06:27:37.036Z,101044.91
2022-08-17T06:30:59.238Z,101030.50
2022-08-17T06:33:32.617Z,101032.91
2022-08-17T06:36:36.864Z,101030.22
2022-08-17T06:39:28.354Z,101030.25
2022-08-17T06:43:02.293Z,101047.81
2022-08-17T06:45:16.118Z,101033.38
2022-08-17T06:47:52.483Z,101046.88
2022-08-17T06:50:29.439Z,101048.75
2022-08-17T06:53:20.820Z,101078.34
2022-08-17T06:56:01.530Z,101061.81
2022-08-17T06:58:29.932Z,101061.31
2022-08-17T07:00:58.823Z,101060.50
2022-08-17T07:03:34.040Z,101056.25
2022-08-17T07:06:11.327Z,101053.59
2022-08-17T07:09:01.478Z,101071.16
2022-08-17T07:11:48.064Z,101065.25
2022-08-17T07:14:26.714Z,101064.69
2022-08-17T07:16:55.545Z,101055.09
2022-08-17T07:19:26.571Z,101067.31
2022-08-17T07:21:55.717Z,101075.53
2022-08-17T07:24:33.330Z,101062.50
2022-08-17T07:27:22.895Z,101076.06
2022-08-17T07:29:57.678Z,101078.63
2022-08-17T07:32:29.192Z,101068.88
2022-08-17T07:35:44.338Z,101047.81
2022-08-17T07:38:28.783Z,101059.69
2022-08-17T07:40:55.108Z,101077.25
2022-08-17T07:43:35.190Z,101067.75
2022-08-17T07:46:10.854Z,101070.38
2022-08-17T07:48:39.877Z,101064.00
2022-08-17T07:51:16.752Z,101079.50
2022-08-17T07:53:43.233Z,101085.44
2022-08-17T07:56:09.694Z,101071.91
2022-08-17T07:58:36.037Z,101069.50
2022-08-17T08:01:11.921Z,101086.00
2022-08-17T08:03:43.019Z,101084.56
2022-08-17T08:06:25.405Z,101090.25
2022-08-17T08:08:55.684Z,101088.06
2022-08-17T08:11:32.501Z,101091.28
2022-08-17T08:14:37.524Z,101091.47
2022-08-17T08:17:09.233Z,101085.19
2022-08-17T08:19:35.963Z,101078.16
2022-08-17T08:22:12.609Z,101086.66
2022-08-17T08:25:07.714Z,101092.38
2022-08-17T08:27:45.949Z,101090.59
2022-08-17T08:30:16.666Z,101092.44
2022-08-17T08:33:02.249Z,101079.50
2022-08-17T08:35:53.430Z,101096.00
2022-08-17T08:38:59.211Z,101089.44
2022-08-17T08:41:44.336Z,101077.09
2022-08-17T08:45:00.953Z,101087.63
2022-08-17T08:47:41.139Z,101086.19
2022-08-17T08:50:38.265Z,101089.41
2022-08-17T08:53:13.966Z,101097.28
2022-08-17T08:56:02.777Z,101099.47
2022-08-17T08:58:50.300Z,101101.94
2022-08-17T09:01:27.699Z,101101.94
2022-08-17T09:04:25.194Z,101104.16
2022-08-17T09:07:03.925Z,101113.75
2022-08-17T09:09:42.465Z,101107.34
2022-08-17T09:12:21.132Z,101110.50
2022-08-17T09:15:01.431Z,101115.56
2022-08-17T09:17:45.437Z,101111.25
2022-08-17T09:20:27.202Z,101119.09
2022-08-17T09:23:25.760Z,101117.63
2022-08-17T09:26:07.888Z,101104.47
2022-08-17T09:28:37.217Z,101089.59
2022-08-17T09:31:09.485Z,101089.41
2022-08-17T09:33:43.644Z,101099.94
2022-08-17T09:36:25.835Z,101098.50
2022-08-17T09:39:36.350Z,101104.72
2022-08-17T09:42:11.727Z,101092.13
2022-08-17T09:44:51.617Z,101091.44
2022-08-17T09:47:36.569Z,101097.44
2022-08-17T09:50:10.909Z,101101.06
2022-08-17T09:52:37.534Z,101092.88
2022-08-17T09:55:05.237Z,101106.16
2022-08-17T09:58:05.837Z,101110.09
2022-08-17T10:00:37.017Z,101106.34
2022-08-17T10:03:30.369Z,101114.03
2022-08-17T10:06:06.622Z,101117.94
2022-08-17T10:08:42.034Z,101110.63
2022-08-17T10:11:33.875Z,101117.91
2022-08-17T10:14:37.359Z,101101.09
2022-08-17T10:17:17.476Z,101097.72
2022-08-17T10:19:57.221Z,101100.13
2022-08-17T10:22:37.725Z,101093.78
2022-08-17T10:25:22.581Z,101091.34
2022-08-17T10:27:59.916Z,101092.13
2022-08-17T10:30:31.439Z,101090.16
2022-08-17T10:32:59.637Z,101093.63
2022-08-17T10:36:00.480Z,101083.31
2022-08-17T10:38:46.105Z,101088.03
2022-08-17T10:41:23.000Z,101079.78
2022-08-17T10:44:40.392Z,101065.88
2022-08-17T10:47:14.491Z,101085.03
2022-08-17T10:49:43.781Z,101065.38
2022-08-17T10:52:30.360Z,101084.03
2022-08-17T10:54:58.788Z,101077.88
2022-08-17T10:57:31.521Z,101077.28
2022-08-17T10:59:59.879Z,101071.44
2022-08-17T11:02:39.353Z,101069.97
2022-08-17T11:05:08.930Z,101078.50
2022-08-17T11:07:35.211Z,101076.59
2022-08-17T11:10:01.559Z,101080.47
2022-08-17T11:13:03.271Z,101066.56
2022-08-17T11:16:08.490Z,101072.53
2022-08-17T11:18:46.352Z,101063.00
2022-08-17T11:21:24.467Z,101073.84
2022-08-17T11:24:17.285Z,101069.78
2022-08-17T11:26:58.949Z,101068.19
2022-08-17T11:29:35.822Z,101075.53
2022-08-17T11:32:10.465Z,101093.56
2022-08-17T11:34:39.538Z,101089.44
2022-08-17T11:37:33.721Z,101091.44
2022-08-17T11:40:20.372Z,101098.78
2022-08-17T11:43:17.300Z,101082.81
2022-08-17T11:46:01.278Z,101103.44
2022-08-17T11:48:30.658Z,101128.06
2022-08-17T11:51:12.123Z,101129.91
2022-08-17T11:53:38.422Z,101123.81
2022-08-17T11:56:09.291Z,101135.19
2022-08-17T11:58:42.222Z,101128.22
2022-08-17T12:01:10.108Z,101124.66
2022-08-17T12:03:39.963Z,101134.38
2022-08-17T12:06:18.057Z,101138.97
2022-08-17T12:08:51.490Z,101145.56
2022-08-17T12:11:57.796Z,101140.00
2022-08-17T12:15:05.814Z,101127.41
2022-08-17T12:17:40.576Z,101130.91
2022-08-17T12:20:20.517Z,101133.91
2022-08-17T12:23:03.611Z,101140.47
2022-08-17T12:25:47.438Z,101138.50
2022-08-17T12:28:28.963Z,101140.06
2022-08-17T12:31:02.029Z,101115.06
2022-08-17T12:33:29.151Z,101129.22
2022-08-17T12:36:02.427Z,101118.00
2022-08-17T12:38:33.266Z,101124.97
2022-08-17T12:41:01.478Z,101134.31
2022-08-17T12:43:28.359Z,101134.09
2022-08-17T12:45:57.873Z,101136.88
2022-08-17T12:48:26.529Z,101134.34
2022-08-17T12:51:00.627Z,101123.41
2022-08-17T12:53:29.821Z,101125.78
2022-08-17T12:55:58.794Z,101133.91
2022-08-17T12:58:31.311Z,101145.44
2022-08-17T13:01:05.305Z,101134.91
2022-08-17T13:03:40.898Z,101128.94
2022-08-17T13:06:10.858Z,101130.22
2022-08-17T13:08:43.823Z,101135.50
2022-08-17T13:11:19.630Z,101166.75
2022-08-17T13:13:48.965Z,101162.59
2022-08-17T13:16:20.216Z,101160.41
2022-08-17T13:18:52.049Z,101172.34
2022-08-17T13:21:18.325Z,101180.38
2022-08-17T13:24:02.112Z,101182.25
2022-08-17T13:26:38.473Z,101167.31
2022-08-17T13:29:07.009Z,101162.19
2022-08-17T13:31:50.426Z,101168.25
2022-08-17T13:34:26.700Z,101171.38
2022-08-17T13:37:23.876Z,101171.94
2022-08-17T13:39:50.322Z,101155.03
2022-08-17T13:42:48.115Z,101144.31
2022-08-17T13:45:35.209Z,101146.59
2022-08-17T13:48:14.108Z,101153.09
2022-08-17T13:50:58.877Z,101156.69
2022-08-17T13:53:32.879Z,101157.34
2022-08-17T13:56:37.746Z,101156.84
2022-08-17T13:59:52.748Z,101152.66
2022-08-17T14:02:10.318Z,101146.00
2022-08-17T14:04:40.605Z,101133.47
2022-08-17T14:07:09.748Z,101138.75
2022-08-17T14:09:40.949Z,101141.44
2022-08-17T14:12:12.695Z,101127.81
2022-08-17T14:14:39.612Z,101124.94
2022-08-17T14:17:06.006Z,101126.03
2022-08-17T14:19:34.624Z,101122.88
2022-08-17T14:22:01.704Z,101131.94
2022-08-17T14:24:30.816Z,101117.91
2022-08-17T14:26:59.403Z,101129.16
2022-08-17T14:29:28.401Z,101131.31
2022-08-17T14:31:55.963Z,101132.44
2022-08-17T14:34:23.914Z,101122.09
2022-08-17T14:36:51.617Z,101106.72
2022-08-17T14:39:19.089Z,101114.25
2022-08-17T14:41:45.689Z,101103.94
2022-08-17T14:44:12.666Z,101107.72
2022-08-17T14:46:40.649Z,101097.97
2022-08-17T14:49:12.287Z,101084.22
2022-08-17T14:51:43.528Z,101096.56
2022-08-17T14:54:32.610Z,101076.38
2022-08-17T14:57:22.649Z,101089.22
2022-08-17T14:59:45.033Z,101089.50
2022-08-17T15:02:12.024Z,101085.53
2022-08-17T15:04:43.419Z,101075.97
2022-08-17T15:07:11.841Z,101083.97
2022-08-17T15:09:38.215Z,101065.84
2022-08-17T15:12:04.920Z,101079.72
2022-08-17T15:14:31.272Z,101084.03
2022-08-17T15:16:57.641Z,101069.16
2022-08-17T15:19:23.959Z,101071.28
2022-08-17T15:21:50.325Z,101060.38
2022-08-17T15:24:16.743Z,101056.66
2022-08-17T15:26:43.145Z,101055.84
2022-08-17T15:29:09.682Z,101056.91
2022-08-17T15:31:36.657Z,101056.88
2022-08-17T15:34:03.497Z,101074.47
2022-08-17T15:36:34.236Z,101063.34
2022-08-17T15:39:00.573Z,101073.41
2022-08-17T15:41:27.476Z,101081.09
2022-08-17T15:43:54.440Z,101076.81
2022-08-17T15:46:23.834Z,101089.31
2022-08-17T15:48:53.056Z,101089.31
2022-08-17T15:51:33.738Z,101094.09
2022-08-17T15:54:04.417Z,101091.34
2022-08-17T15:56:45.852Z,101095.59
2022-08-17T15:59:12.201Z,101104.13
2022-08-17T16:03:01.129Z,101090.94
2022-08-17T16:04:30.337Z,101092.56
2022-08-17T16:06:58.083Z,101094.19
2022-08-17T16:09:24.425Z,101109.16
2022-08-17T16:11:55.026Z,101106.50
2022-08-17T16:14:21.936Z,101122.00
2022-08-17T16:16:49.519Z,101116.97
2022-08-17T16:19:15.892Z,101114.06
2022-08-17T16:21:42.949Z,101117.31
2022-08-17T16:24:13.160Z,101115.19
2022-08-17T16:26:41.701Z,101120.50
2022-08-17T16:29:08.865Z,101100.25
2022-08-17T16:31:36.304Z,101098.41
2022-08-17T16:34:17.482Z,101125.31
2022-08-17T16:36:55.540Z,101124.78
2022-08-17T16:39:24.036Z,101116.00
2022-08-17T16:41:50.419Z,101113.59
2022-08-17T16:44:20.077Z,101115.47
2022-08-17T16:46:47.941Z,101106.63
2022-08-17T16:49:26.778Z,101109.50
2022-08-17T16:52:01.851Z,101118.84
2022-08-17T16:54:28.236Z,101097.53
2022-08-17T16:56:55.191Z,101107.69
2022-08-17T16:59:30.815Z,101115.94
2022-08-17T17:02:05.966Z,101110.94
2022-08-17T17:04:35.128Z,101114.13
2022-08-17T17:07:17.646Z,101104.53
2022-08-17T17:09:44.865Z,101109.31
2022-08-17T17:12:18.452Z,101108.78
2022-08-17T17:14:48.218Z,101113.31
2022-08-17T17:17:31.975Z,101121.28
2022-08-17T17:20:13.395Z,101125.84
2022-08-17T17:23:01.849Z,101110.34
2022-08-17T17:25:38.299Z,101124.97
2022-08-17T17:28:32.009Z,101131.63
2022-08-17T17:31:05.494Z,101130.00
2022-08-17T17:33:39.976Z,101134.25
2022-08-17T17:36:38.024Z,101137.44
2022-08-17T17:39:10.165Z,101138.53
2022-08-17T17:41:54.631Z,101143.91
2022-08-17T17:44:32.225Z,101147.41
2022-08-17T17:47:01.264Z,101141.84
2022-08-17T17:49:32.757Z,101143.47
2022-08-17T17:52:12.297Z,101145.88
2022-08-17T17:55:03.980Z,101141.13
2022-08-17T17:57:46.392Z,101133.41
2022-08-17T18:00:21.074Z,101142.25
2022-08-17T18:03:09.615Z,101147.06
2022-08-17T18:05:48.069Z,101142.25
2022-08-17T18:08:34.262Z,101161.97
2022-08-17T18:11:24.112Z,101170.25
2022-08-17T18:14:21.822Z,101173.50
2022-08-17T18:16:55.207Z,101167.03
2022-08-17T18:19:23.064Z,101162.78
2022-08-17T18:21:54.486Z,101161.22
2022-08-17T18:24:35.780Z,101171.84
2022-08-17T18:27:18.341Z,101161.47
2022-08-17T18:29:46.935Z,101159.59
2022-08-17T18:32:20.453Z,101178.81
2022-08-17T18:34:53.149Z,101166.03
2022-08-17T18:37:48.520Z,101179.09
2022-08-17T18:40:18.035Z,101169.78
2022-08-17T18:42:54.905Z,101162.03
2022-08-17T18:45:38.387Z,101156.22
2022-08-17T18:48:16.813Z,101150.59
2022-08-17T18:50:43.257Z,101162.31
2022-08-17T18:53:26.492Z,101156.22
2022-08-17T18:56:27.945Z,101164.47
2022-08-17T18:59:09.890Z,101173.25
2022-08-17T19:01:53.533Z,101174.34
2022-08-17T19:04:41.901Z,101169.53
2022-08-17T19:07:17.081Z,101186.31
2022-08-17T19:09:48.458Z,101187.38
2022-08-17T19:12:27.200Z,101199.34
2022-08-17T19:14:56.289Z,101188.69
2022-08-17T19:17:29.757Z,101191.91
2022-08-17T19:20:03.039Z,101189.75
2022-08-17T19:22:45.383Z,101194.53
2022-08-17T19:25:17.187Z,101204.94
2022-08-17T19:27:50.741Z,101206.22
2022-08-17T19:30:24.084Z,101196.88
2022-08-17T19:32:50.592Z,101213.94
2022-08-17T19:35:19.407Z,101211.56
2022-08-17T19:38:22.121Z,101215.00
2022-08-17T19:41:00.540Z,101216.31
2022-08-17T19:43:51.337Z,101211.22
2022-08-17T19:46:35.647Z,101200.81
2022-08-17T19:49:32.875Z,101210.41
2022-08-17T19:52:24.403Z,101217.28
2022-08-17T19:55:02.247Z,101233.03
2022-08-17T19:57:56.402Z,101221.56
2022-08-17T20:00:23.081Z,101229.00
2022-08-17T20:03:22.562Z,101225.03
2022-08-17T20:06:12.628Z,101229.28
2022-08-17T20:09:04.221Z,101228.75
2022-08-17T20:11:49.217Z,101217.81
2022-08-17T20:14:35.137Z,101230.84
2022-08-17T20:17:03.040Z,101234.88
2022-08-17T20:19:40.945Z,101226.06
2022-08-17T20:22:20.129Z,101237.53
2022-08-17T20:25:06.804Z,101243.16
2022-08-17T20:27:47.190Z,101244.19
2022-08-17T20:30:25.024Z,101241.28
2022-08-17T20:32:55.859Z,101226.59
2022-08-17T20:35:28.331Z,101233.53
2022-08-17T20:37:59.663Z,101235.66
2022-08-17T20:40:39.432Z,101235.66
2022-08-17T20:44:03.445Z,101232.97
2022-08-17T20:46:41.300Z,101233.75
2022-08-17T20:49:10.658Z,101224.44
2022-08-17T20:52:07.577Z,101238.53
2022-08-17T20:54:47.944Z,101227.59
2022-08-17T20:57:32.475Z,101250.50
2022-08-17T21:00:06.698Z,101237.44
2022-08-17T21:02:33.265Z,101232.38
2022-08-17T21:05:04.162Z,101244.06
2022-08-17T21:07:42.571Z,101252.59
2022-08-17T21:10:25.383Z,101247.56
2022-08-17T21:12:51.685Z,101238.75
2022-08-17T21:15:34.221Z,101231.25
2022-08-17T21:18:14.100Z,101233.38
2022-08-17T21:20:49.269Z,101233.88
2022-08-17T21:23:31.267Z,101230.09
2022-08-17T21:25:57.557Z,101227.94
2022-08-17T21:29:00.013Z,101221.03
2022-08-17T21:31:38.156Z,101221.53
2022-08-17T21:34:23.882Z,101214.34
2022-08-17T21:36:50.364Z,101216.69
2022-08-17T21:39:23.274Z,101221.47
2022-08-17T21:41:56.973Z,101218.25
2022-08-17T21:44:36.765Z,101216.63
2022-08-17T21:47:38.816Z,101238.16
2022-08-17T21:50:24.673Z,101230.97
2022-08-17T21:52:54.662Z,101245.88
2022-08-17T21:55:32.489Z,101260.00
2022-08-17T21:58:13.848Z,101268.78
2022-08-17T22:00:42.286Z,101262.38
2022-08-17T22:03:23.385Z,101283.16
2022-08-17T22:05:49.749Z,101273.56
2022-08-17T22:08:22.296Z,101281.28
2022-08-17T22:10:49.380Z,101284.72
2022-08-17T22:13:24.377Z,101285.19
2022-08-17T22:16:15.737Z,101288.63
2022-08-17T22:18:54.779Z,101287.28
2022-08-17T22:21:22.527Z,101292.56
2022-08-17T22:24:14.973Z,101291.47
2022-08-17T22:27:00.667Z,101290.84
2022-08-17T22:29:46.628Z,101276.13
2022-08-17T22:32:40.237Z,101276.34
2022-08-17T22:35:30.749Z,101279.00
2022-08-17T22:38:17.578Z,101267.75
2022-08-17T22:40:46.828Z,101269.84
2022-08-17T22:43:13.446Z,101256.16
2022-08-17T22:45:44.616Z,101267.13
2022-08-17T22:48:11.317Z,101263.34
2022-08-17T22:50:37.692Z,101261.16
2022-08-17T22:53:15.291Z,101257.41
2022-08-17T22:55:53.739Z,101258.97
2022-08-17T22:58:23.890Z,101263.78
2022-08-17T23:00:50.290Z,101256.56
2022-08-17T23:03:21.195Z,101279.19
2022-08-17T23:06:09.247Z,101278.66
2022-08-17T23:08:37.415Z,101282.00
2022-08-17T23:11:05.836Z,101284.91
2022-08-17T23:13:32.291Z,101277.44
2022-08-17T23:15:59.002Z,101276.44
2022-08-17T23:18:25.392Z,101279.66
2022-08-17T23:20:51.750Z,101266.56
2022-08-17T23:23:23.045Z,101272.44
2022-08-17T23:25:50.051Z,101287.13
2022-08-17T23:28:16.378Z,101269.53
2022-08-17T23:30:44.335Z,101273.78
2022-08-17T23:33:36.199Z,101259.84
2022-08-17T23:36:02.644Z,101267.78
2022-08-17T23:38:29.015Z,101266.47
2022-08-17T23:40:58.500Z,101281.03
2022-08-17T23:43:27.580Z,101276.47
2022-08-17T23:45:56.329Z,101266.16
2022-08-17T23:48:32.516Z,101275.78
2022-08-17T23:51:04.439Z,101278.97
2022-08-17T23:53:34.346Z,101290.41
2022-08-17T23:56:03.754Z,101293.38
2022-08-17T23:58:37.513Z,101290.16
